sensor_id;sensor_type;location;lat;lon;timestamp;P1;durP1;ratioP1;P2;durP2;ratioP2
25439;SDS011;13365;52.208;5.488;2024-01-15T00:00:37;17.63;;;1.45;;
25439;SDS011;13365;52.208;5.488;2024-01-15T00:03:04;7.30;;;1.02;;
25439;SDS011;13365;52.208;5.488;2024-01-15T00:05:30;7.20;;;1.10;;
25439;SDS011;13365;52.208;5.488;2024-01-15T00:07:55;5.03;;;0.73;;
25439;SDS011;13365;52.208;5.488;2024-01-15T00:10:21;14.15;;;1.45;;
25439;SDS011;13365;52.208;5.488;2024-01-15T00:12:46;12.65;;;1.40;;
25439;SDS011;13365;52.208;5.488;2024-01-15T00:15:12;3.42;;;1.02;;
25439;SDS011;13365;52.208;5.488;2024-01-15T00:17:38;7.43;;;0.75;;
25439;SDS011;13365;52.208;5.488;2024-01-15T00:20:04;8.90;;;0.75;;
25439;SDS011;13365;52.208;5.488;2024-01-15T00:22:30;9.10;;;0.75;;
25439;SDS011;13365;52.208;5.488;2024-01-15T00:24:56;11.90;;;1.17;;
25439;SDS011;13365;52.208;5.488;2024-01-15T00:27:22;5.60;;;1.08;;
25439;SDS011;13365;52.208;5.488;2024-01-15T00:29:48;10.52;;;0.90;;
25439;SDS011;13365;52.208;5.488;2024-01-15T00:32:15;11.48;;;1.08;;
25439;SDS011;13365;52.208;5.488;2024-01-15T00:34:41;6.38;;;1.10;;
25439;SDS011;13365;52.208;5.488;2024-01-15T00:37:07;10.98;;;0.80;;
25439;SDS011;13365;52.208;5.488;2024-01-15T00:39:32;7.82;;;0.93;;
25439;SDS011;13365;52.208;5.488;2024-01-15T00:41:58;11.68;;;1.40;;
25439;SDS011;13365;52.208;5.488;2024-01-15T00:44:24;3.72;;;0.70;;
25439;SDS011;13365;52.208;5.488;2024-01-15T00:46:49;7.82;;;0.82;;
25439;SDS011;13365;52.208;5.488;2024-01-15T00:49:15;5.55;;;0.85;;
25439;SDS011;13365;52.208;5.488;2024-01-15T00:51:41;4.68;;;1.42;;
25439;SDS011;13365;52.208;5.488;2024-01-15T00:54:07;11.07;;;1.80;;
25439;SDS011;13365;52.208;5.488;2024-01-15T00:56:32;13.60;;;1.58;;
25439;SDS011;13365;52.208;5.488;2024-01-15T00:58:58;6.03;;;1.13;;
25439;SDS011;13365;52.208;5.488;2024-01-15T01:01:24;12.65;;;1.50;;
25439;SDS011;13365;52.208;5.488;2024-01-15T01:03:50;6.65;;;0.70;;
25439;SDS011;13365;52.208;5.488;2024-01-15T01:06:16;8.27;;;1.08;;
25439;SDS011;13365;52.208;5.488;2024-01-15T01:08:41;18.90;;;1.63;;
25439;SDS011;13365;52.208;5.488;2024-01-15T01:11:07;10.38;;;1.63;;
25439;SDS011;13365;52.208;5.488;2024-01-15T01:13:33;8.73;;;1.23;;
25439;SDS011;13365;52.208;5.488;2024-01-15T01:15:58;19.48;;;1.63;;
25439;SDS011;13365;52.208;5.488;2024-01-15T01:18:24;7.40;;;1.02;;
25439;SDS011;13365;52.208;5.488;2024-01-15T01:20:50;2.10;;;0.47;;
25439;SDS011;13365;52.208;5.488;2024-01-15T01:23:16;12.95;;;1.38;;
25439;SDS011;13365;52.208;5.488;2024-01-15T01:25:41;13.75;;;1.48;;
25439;SDS011;13365;52.208;5.488;2024-01-15T01:28:07;6.03;;;1.00;;
25439;SDS011;13365;52.208;5.488;2024-01-15T01:30:35;2.90;;;0.90;;
25439;SDS011;13365;52.208;5.488;2024-01-15T01:33:00;6.60;;;1.67;;
25439;SDS011;13365;52.208;5.488;2024-01-15T01:35:26;3.80;;;0.68;;
25439;SDS011;13365;52.208;5.488;2024-01-15T01:37:52;7.57;;;1.00;;
25439;SDS011;13365;52.208;5.488;2024-01-15T01:40:17;5.90;;;0.82;;
25439;SDS011;13365;52.208;5.488;2024-01-15T01:42:43;6.13;;;0.60;;
25439;SDS011;13365;52.208;5.488;2024-01-15T01:45:08;9.82;;;0.93;;
25439;SDS011;13365;52.208;5.488;2024-01-15T01:47:34;5.82;;;0.90;;
25439;SDS011;13365;52.208;5.488;2024-01-15T01:50:01;8.05;;;0.93;;
25439;SDS011;13365;52.208;5.488;2024-01-15T01:52:27;10.55;;;0.93;;
25439;SDS011;13365;52.208;5.488;2024-01-15T01:54:53;8.82;;;0.88;;
25439;SDS011;13365;52.208;5.488;2024-01-15T01:57:19;7.45;;;1.02;;
25439;SDS011;13365;52.208;5.488;2024-01-15T01:59:45;6.45;;;0.75;;
25439;SDS011;13365;52.208;5.488;2024-01-15T02:02:12;7.57;;;0.95;;
25439;SDS011;13365;52.208;5.488;2024-01-15T02:04:38;10.18;;;1.13;;
25439;SDS011;13365;52.208;5.488;2024-01-15T02:07:05;7.85;;;0.77;;
25439;SDS011;13365;52.208;5.488;2024-01-15T02:09:30;3.47;;;0.95;;
25439;SDS011;13365;52.208;5.488;2024-01-15T02:11:57;3.83;;;0.52;;
25439;SDS011;13365;52.208;5.488;2024-01-15T02:14:25;4.32;;;0.95;;
25439;SDS011;13365;52.208;5.488;2024-01-15T02:16:51;7.07;;;1.25;;
25439;SDS011;13365;52.208;5.488;2024-01-15T02:19:17;15.35;;;1.33;;
25439;SDS011;13365;52.208;5.488;2024-01-15T02:21:43;5.32;;;1.45;;
25439;SDS011;13365;52.208;5.488;2024-01-15T02:24:09;12.40;;;1.20;;
25439;SDS011;13365;52.208;5.488;2024-01-15T02:26:35;9.15;;;1.02;;
25439;SDS011;13365;52.208;5.488;2024-01-15T02:29:02;5.63;;;0.82;;
25439;SDS011;13365;52.208;5.488;2024-01-15T02:31:28;8.32;;;1.42;;
25439;SDS011;13365;52.208;5.488;2024-01-15T02:33:53;5.35;;;0.77;;
25439;SDS011;13365;52.208;5.488;2024-01-15T02:36:20;6.82;;;0.80;;
25439;SDS011;13365;52.208;5.488;2024-01-15T02:38:46;4.00;;;0.50;;
25439;SDS011;13365;52.208;5.488;2024-01-15T02:41:11;8.23;;;1.25;;
25439;SDS011;13365;52.208;5.488;2024-01-15T02:43:39;9.43;;;0.90;;
25439;SDS011;13365;52.208;5.488;2024-01-15T02:46:05;4.45;;;0.80;;
25439;SDS011;13365;52.208;5.488;2024-01-15T02:48:31;7.90;;;1.05;;
25439;SDS011;13365;52.208;5.488;2024-01-15T02:50:57;7.97;;;1.10;;
25439;SDS011;13365;52.208;5.488;2024-01-15T02:53:23;3.40;;;0.73;;
25439;SDS011;13365;52.208;5.488;2024-01-15T02:55:49;5.18;;;0.60;;
25439;SDS011;13365;52.208;5.488;2024-01-15T02:58:14;3.78;;;0.40;;
25439;SDS011;13365;52.208;5.488;2024-01-15T03:00:40;2.53;;;0.40;;
25439;SDS011;13365;52.208;5.488;2024-01-15T03:03:05;5.95;;;0.43;;
25439;SDS011;13365;52.208;5.488;2024-01-15T03:05:31;3.97;;;0.57;;
25439;SDS011;13365;52.208;5.488;2024-01-15T03:07:57;2.78;;;0.68;;
25439;SDS011;13365;52.208;5.488;2024-01-15T03:10:22;3.38;;;0.55;;
25439;SDS011;13365;52.208;5.488;2024-01-15T03:12:48;2.85;;;0.40;;
25439;SDS011;13365;52.208;5.488;2024-01-15T03:15:13;5.57;;;0.68;;
25439;SDS011;13365;52.208;5.488;2024-01-15T03:17:43;3.65;;;0.50;;
25439;SDS011;13365;52.208;5.488;2024-01-15T03:20:09;5.57;;;0.40;;
25439;SDS011;13365;52.208;5.488;2024-01-15T03:22:35;0.68;;;0.30;;
25439;SDS011;13365;52.208;5.488;2024-01-15T03:25:00;8.98;;;0.75;;
25439;SDS011;13365;52.208;5.488;2024-01-15T03:27:26;6.72;;;0.50;;
25439;SDS011;13365;52.208;5.488;2024-01-15T03:29:51;7.55;;;0.95;;
25439;SDS011;13365;52.208;5.488;2024-01-15T03:32:17;3.10;;;0.63;;
25439;SDS011;13365;52.208;5.488;2024-01-15T03:34:44;2.38;;;0.47;;
25439;SDS011;13365;52.208;5.488;2024-01-15T03:37:11;4.13;;;0.47;;
25439;SDS011;13365;52.208;5.488;2024-01-15T03:39:37;4.05;;;0.65;;
25439;SDS011;13365;52.208;5.488;2024-01-15T03:42:08;1.80;;;0.52;;
25439;SDS011;13365;52.208;5.488;2024-01-15T03:44:33;1.17;;;0.40;;
25439;SDS011;13365;52.208;5.488;2024-01-15T03:46:59;5.10;;;0.95;;
25439;SDS011;13365;52.208;5.488;2024-01-15T03:49:25;4.80;;;0.45;;
25439;SDS011;13365;52.208;5.488;2024-01-15T03:51:51;3.10;;;0.20;;
25439;SDS011;13365;52.208;5.488;2024-01-15T03:54:17;1.98;;;0.22;;
25439;SDS011;13365;52.208;5.488;2024-01-15T03:56:42;1.85;;;0.30;;
25439;SDS011;13365;52.208;5.488;2024-01-15T03:59:08;3.15;;;0.40;;
25439;SDS011;13365;52.208;5.488;2024-01-15T04:01:34;3.08;;;0.40;;
25439;SDS011;13365;52.208;5.488;2024-01-15T04:03:59;3.10;;;0.28;;
25439;SDS011;13365;52.208;5.488;2024-01-15T04:06:25;3.17;;;0.20;;
25439;SDS011;13365;52.208;5.488;2024-01-15T04:08:50;6.10;;;0.47;;
25439;SDS011;13365;52.208;5.488;2024-01-15T04:11:16;2.42;;;0.20;;
25439;SDS011;13365;52.208;5.488;2024-01-15T04:13:42;1.52;;;0.10;;
25439;SDS011;13365;52.208;5.488;2024-01-15T04:16:07;2.83;;;0.20;;
25439;SDS011;13365;52.208;5.488;2024-01-15T04:18:33;2.65;;;0.45;;
25439;SDS011;13365;52.208;5.488;2024-01-15T04:20:59;1.75;;;0.45;;
25439;SDS011;13365;52.208;5.488;2024-01-15T04:23:24;2.25;;;0.22;;
25439;SDS011;13365;52.208;5.488;2024-01-15T04:25:51;5.70;;;0.40;;
25439;SDS011;13365;52.208;5.488;2024-01-15T04:28:17;6.30;;;0.70;;
25439;SDS011;13365;52.208;5.488;2024-01-15T04:30:44;3.65;;;0.60;;
25439;SDS011;13365;52.208;5.488;2024-01-15T04:33:09;3.17;;;0.80;;
25439;SDS011;13365;52.208;5.488;2024-01-15T04:35:35;3.72;;;1.08;;
25439;SDS011;13365;52.208;5.488;2024-01-15T04:38:00;3.78;;;1.00;;
25439;SDS011;13365;52.208;5.488;2024-01-15T04:40:26;6.18;;;1.30;;
25439;SDS011;13365;52.208;5.488;2024-01-15T04:42:53;9.88;;;1.17;;
25439;SDS011;13365;52.208;5.488;2024-01-15T04:45:19;3.38;;;0.90;;
25439;SDS011;13365;52.208;5.488;2024-01-15T04:47:47;4.22;;;0.85;;
25439;SDS011;13365;52.208;5.488;2024-01-15T04:50:13;2.08;;;0.68;;
25439;SDS011;13365;52.208;5.488;2024-01-15T04:52:39;4.80;;;1.00;;
25439;SDS011;13365;52.208;5.488;2024-01-15T04:55:05;3.45;;;0.90;;
25439;SDS011;13365;52.208;5.488;2024-01-15T04:57:30;3.40;;;0.90;;
25439;SDS011;13365;52.208;5.488;2024-01-15T04:59:56;6.95;;;0.57;;
25439;SDS011;13365;52.208;5.488;2024-01-15T05:02:21;9.75;;;0.77;;
25439;SDS011;13365;52.208;5.488;2024-01-15T05:04:47;5.85;;;0.50;;
25439;SDS011;13365;52.208;5.488;2024-01-15T05:07:13;6.95;;;0.63;;
25439;SDS011;13365;52.208;5.488;2024-01-15T05:09:38;5.72;;;0.47;;
25439;SDS011;13365;52.208;5.488;2024-01-15T05:12:04;4.47;;;0.38;;
25439;SDS011;13365;52.208;5.488;2024-01-15T05:14:30;3.15;;;0.38;;
25439;SDS011;13365;52.208;5.488;2024-01-15T05:16:57;3.63;;;0.50;;
25439;SDS011;13365;52.208;5.488;2024-01-15T05:19:22;6.18;;;0.52;;
25439;SDS011;13365;52.208;5.488;2024-01-15T05:21:48;5.30;;;0.82;;
25439;SDS011;13365;52.208;5.488;2024-01-15T05:24:13;3.90;;;0.47;;
25439;SDS011;13365;52.208;5.488;2024-01-15T05:26:39;2.88;;;0.43;;
25439;SDS011;13365;52.208;5.488;2024-01-15T05:29:05;8.48;;;0.50;;
25439;SDS011;13365;52.208;5.488;2024-01-15T05:31:30;5.55;;;0.68;;
25439;SDS011;13365;52.208;5.488;2024-01-15T05:33:56;7.95;;;0.60;;
25439;SDS011;13365;52.208;5.488;2024-01-15T05:36:21;6.05;;;0.38;;
25439;SDS011;13365;52.208;5.488;2024-01-15T05:38:47;2.88;;;0.60;;
25439;SDS011;13365;52.208;5.488;2024-01-15T05:41:13;6.05;;;0.28;;
25439;SDS011;13365;52.208;5.488;2024-01-15T05:43:39;6.15;;;0.70;;
25439;SDS011;13365;52.208;5.488;2024-01-15T05:46:04;7.85;;;1.08;;
25439;SDS011;13365;52.208;5.488;2024-01-15T05:48:31;3.58;;;0.73;;
25439;SDS011;13365;52.208;5.488;2024-01-15T05:50:56;1.80;;;0.50;;
25439;SDS011;13365;52.208;5.488;2024-01-15T05:53:22;4.22;;;0.80;;
25439;SDS011;13365;52.208;5.488;2024-01-15T05:55:48;5.35;;;0.30;;
25439;SDS011;13365;52.208;5.488;2024-01-15T05:58:13;6.35;;;0.68;;
25439;SDS011;13365;52.208;5.488;2024-01-15T06:00:39;7.78;;;1.05;;
25439;SDS011;13365;52.208;5.488;2024-01-15T06:03:05;2.83;;;0.52;;
25439;SDS011;13365;52.208;5.488;2024-01-15T06:05:30;6.60;;;0.98;;
25439;SDS011;13365;52.208;5.488;2024-01-15T06:07:56;5.93;;;0.65;;
25439;SDS011;13365;52.208;5.488;2024-01-15T06:10:22;3.85;;;0.70;;
25439;SDS011;13365;52.208;5.488;2024-01-15T06:12:47;5.97;;;0.70;;
25439;SDS011;13365;52.208;5.488;2024-01-15T06:15:13;3.97;;;0.45;;
25439;SDS011;13365;52.208;5.488;2024-01-15T06:17:39;6.03;;;0.63;;
25439;SDS011;13365;52.208;5.488;2024-01-15T06:20:05;3.55;;;0.60;;
25439;SDS011;13365;52.208;5.488;2024-01-15T06:22:31;2.45;;;0.65;;
25439;SDS011;13365;52.208;5.488;2024-01-15T06:24:57;10.68;;;0.73;;
25439;SDS011;13365;52.208;5.488;2024-01-15T06:27:23;6.03;;;0.80;;
25439;SDS011;13365;52.208;5.488;2024-01-15T06:29:48;5.15;;;0.60;;
25439;SDS011;13365;52.208;5.488;2024-01-15T06:32:14;3.25;;;0.70;;
25439;SDS011;13365;52.208;5.488;2024-01-15T06:34:40;7.82;;;0.93;;
25439;SDS011;13365;52.208;5.488;2024-01-15T06:37:05;10.20;;;0.57;;
25439;SDS011;13365;52.208;5.488;2024-01-15T06:39:31;2.95;;;0.60;;
25439;SDS011;13365;52.208;5.488;2024-01-15T06:41:57;5.75;;;0.82;;
25439;SDS011;13365;52.208;5.488;2024-01-15T06:44:22;5.22;;;0.73;;
25439;SDS011;13365;52.208;5.488;2024-01-15T06:46:48;4.13;;;0.88;;
25439;SDS011;13365;52.208;5.488;2024-01-15T06:49:14;5.07;;;0.90;;
25439;SDS011;13365;52.208;5.488;2024-01-15T06:51:39;5.60;;;1.13;;
25439;SDS011;13365;52.208;5.488;2024-01-15T06:54:05;6.20;;;1.48;;
25439;SDS011;13365;52.208;5.488;2024-01-15T06:56:31;2.33;;;1.13;;
25439;SDS011;13365;52.208;5.488;2024-01-15T06:58:57;8.27;;;1.40;;
25439;SDS011;13365;52.208;5.488;2024-01-15T07:01:23;4.38;;;1.20;;
25439;SDS011;13365;52.208;5.488;2024-01-15T07:03:48;8.55;;;1.80;;
25439;SDS011;13365;52.208;5.488;2024-01-15T07:06:14;6.07;;;1.60;;
25439;SDS011;13365;52.208;5.488;2024-01-15T07:08:40;6.32;;;1.65;;
25439;SDS011;13365;52.208;5.488;2024-01-15T07:11:06;10.63;;;1.73;;
25439;SDS011;13365;52.208;5.488;2024-01-15T07:13:32;7.10;;;1.50;;
25439;SDS011;13365;52.208;5.488;2024-01-15T07:15:58;5.30;;;1.38;;
25439;SDS011;13365;52.208;5.488;2024-01-15T07:18:24;8.80;;;2.00;;
25439;SDS011;13365;52.208;5.488;2024-01-15T07:20:50;9.57;;;2.13;;
25439;SDS011;13365;52.208;5.488;2024-01-15T07:23:16;10.15;;;2.20;;
25439;SDS011;13365;52.208;5.488;2024-01-15T07:25:42;8.40;;;1.60;;
25439;SDS011;13365;52.208;5.488;2024-01-15T07:28:08;5.57;;;2.05;;
25439;SDS011;13365;52.208;5.488;2024-01-15T07:30:34;3.55;;;1.73;;
25439;SDS011;13365;52.208;5.488;2024-01-15T07:33:01;9.38;;;2.03;;
25439;SDS011;13365;52.208;5.488;2024-01-15T07:35:29;7.38;;;1.80;;
25439;SDS011;13365;52.208;5.488;2024-01-15T07:37:55;6.40;;;1.58;;
25439;SDS011;13365;52.208;5.488;2024-01-15T07:40:20;12.05;;;2.08;;
25439;SDS011;13365;52.208;5.488;2024-01-15T07:42:46;6.38;;;1.67;;
25439;SDS011;13365;52.208;5.488;2024-01-15T07:45:12;5.40;;;1.52;;
25439;SDS011;13365;52.208;5.488;2024-01-15T07:47:38;7.40;;;2.03;;
25439;SDS011;13365;52.208;5.488;2024-01-15T07:50:04;10.30;;;2.10;;
25439;SDS011;13365;52.208;5.488;2024-01-15T07:52:30;3.58;;;1.30;;
25439;SDS011;13365;52.208;5.488;2024-01-15T07:54:56;5.95;;;1.75;;
25439;SDS011;13365;52.208;5.488;2024-01-15T07:57:24;8.98;;;1.98;;
25439;SDS011;13365;52.208;5.488;2024-01-15T07:59:50;4.57;;;1.38;;
25439;SDS011;13365;52.208;5.488;2024-01-15T08:02:16;8.60;;;1.58;;
25439;SDS011;13365;52.208;5.488;2024-01-15T08:04:42;6.22;;;1.40;;
25439;SDS011;13365;52.208;5.488;2024-01-15T08:07:09;6.00;;;1.42;;
25439;SDS011;13365;52.208;5.488;2024-01-15T08:09:35;7.63;;;1.65;;
25439;SDS011;13365;52.208;5.488;2024-01-15T08:12:01;4.13;;;1.30;;
25439;SDS011;13365;52.208;5.488;2024-01-15T08:14:26;6.00;;;1.55;;
25439;SDS011;13365;52.208;5.488;2024-01-15T08:16:52;4.90;;;1.25;;
25439;SDS011;13365;52.208;5.488;2024-01-15T08:19:18;6.35;;;1.02;;
25439;SDS011;13365;52.208;5.488;2024-01-15T08:21:45;4.32;;;1.50;;
25439;SDS011;13365;52.208;5.488;2024-01-15T08:24:10;4.90;;;1.45;;
25439;SDS011;13365;52.208;5.488;2024-01-15T08:26:36;7.65;;;1.50;;
25439;SDS011;13365;52.208;5.488;2024-01-15T08:29:02;3.95;;;1.50;;
25439;SDS011;13365;52.208;5.488;2024-01-15T08:31:28;5.40;;;1.50;;
25439;SDS011;13365;52.208;5.488;2024-01-15T08:33:53;9.02;;;1.77;;
25439;SDS011;13365;52.208;5.488;2024-01-15T08:36:21;9.50;;;1.70;;
25439;SDS011;13365;52.208;5.488;2024-01-15T08:38:47;6.57;;;1.50;;
25439;SDS011;13365;52.208;5.488;2024-01-15T08:41:13;3.70;;;0.93;;
25439;SDS011;13365;52.208;5.488;2024-01-15T08:43:38;5.35;;;1.20;;
25439;SDS011;13365;52.208;5.488;2024-01-15T08:46:04;5.32;;;1.25;;
25439;SDS011;13365;52.208;5.488;2024-01-15T08:48:30;7.95;;;1.73;;
25439;SDS011;13365;52.208;5.488;2024-01-15T08:50:55;6.68;;;2.22;;
25439;SDS011;13365;52.208;5.488;2024-01-15T08:53:22;4.80;;;1.73;;
25439;SDS011;13365;52.208;5.488;2024-01-15T08:55:48;2.63;;;1.48;;
25439;SDS011;13365;52.208;5.488;2024-01-15T08:58:14;5.90;;;2.15;;
25439;SDS011;13365;52.208;5.488;2024-01-15T09:00:40;3.08;;;1.50;;
25439;SDS011;13365;52.208;5.488;2024-01-15T09:03:05;5.70;;;1.75;;
25439;SDS011;13365;52.208;5.488;2024-01-15T09:05:31;3.67;;;1.85;;
25439;SDS011;13365;52.208;5.488;2024-01-15T09:07:57;13.70;;;1.58;;
25439;SDS011;13365;52.208;5.488;2024-01-15T09:10:22;6.90;;;1.60;;
25439;SDS011;13365;52.208;5.488;2024-01-15T09:12:49;7.00;;;1.70;;
25439;SDS011;13365;52.208;5.488;2024-01-15T09:15:14;9.45;;;1.30;;
25439;SDS011;13365;52.208;5.488;2024-01-15T09:17:40;5.45;;;1.20;;
25439;SDS011;13365;52.208;5.488;2024-01-15T09:20:06;2.20;;;0.93;;
25439;SDS011;13365;52.208;5.488;2024-01-15T09:22:33;17.30;;;1.83;;
25439;SDS011;13365;52.208;5.488;2024-01-15T09:24:58;10.95;;;1.20;;
25439;SDS011;13365;52.208;5.488;2024-01-15T09:27:24;6.22;;;1.10;;
25439;SDS011;13365;52.208;5.488;2024-01-15T09:29:53;11.90;;;1.48;;
25439;SDS011;13365;52.208;5.488;2024-01-15T09:32:19;13.77;;;1.67;;
25439;SDS011;13365;52.208;5.488;2024-01-15T09:34:47;10.48;;;1.27;;
25439;SDS011;13365;52.208;5.488;2024-01-15T09:37:13;7.05;;;1.52;;
25439;SDS011;13365;52.208;5.488;2024-01-15T09:39:39;6.07;;;1.35;;
25439;SDS011;13365;52.208;5.488;2024-01-15T09:42:05;17.13;;;1.45;;
25439;SDS011;13365;52.208;5.488;2024-01-15T09:44:31;9.10;;;1.45;;
25439;SDS011;13365;52.208;5.488;2024-01-15T09:46:57;10.05;;;1.73;;
25439;SDS011;13365;52.208;5.488;2024-01-15T09:49:23;9.48;;;1.30;;
25439;SDS011;13365;52.208;5.488;2024-01-15T09:51:49;10.43;;;1.02;;
25439;SDS011;13365;52.208;5.488;2024-01-15T09:54:18;6.45;;;0.88;;
25439;SDS011;13365;52.208;5.488;2024-01-15T09:56:47;5.72;;;1.10;;
25439;SDS011;13365;52.208;5.488;2024-01-15T09:59:14;5.88;;;0.82;;
25439;SDS011;13365;52.208;5.488;2024-01-15T10:01:44;12.93;;;1.60;;
25439;SDS011;13365;52.208;5.488;2024-01-15T10:04:10;3.58;;;0.82;;
25439;SDS011;13365;52.208;5.488;2024-01-15T10:06:40;10.13;;;1.48;;
25439;SDS011;13365;52.208;5.488;2024-01-15T10:09:10;9.32;;;1.25;;
25439;SDS011;13365;52.208;5.488;2024-01-15T10:11:57;8.43;;;1.08;;
25439;SDS011;13365;52.208;5.488;2024-01-15T10:14:23;7.50;;;1.23;;
25439;SDS011;13365;52.208;5.488;2024-01-15T10:16:49;8.32;;;0.77;;
25439;SDS011;13365;52.208;5.488;2024-01-15T10:19:15;4.50;;;0.88;;
25439;SDS011;13365;52.208;5.488;2024-01-15T10:21:40;11.70;;;1.80;;
25439;SDS011;13365;52.208;5.488;2024-01-15T10:24:06;6.82;;;0.95;;
25439;SDS011;13365;52.208;5.488;2024-01-15T10:26:32;3.47;;;0.60;;
25439;SDS011;13365;52.208;5.488;2024-01-15T10:29:01;7.95;;;0.88;;
25439;SDS011;13365;52.208;5.488;2024-01-15T10:31:27;6.72;;;1.27;;
25439;SDS011;13365;52.208;5.488;2024-01-15T10:33:52;5.53;;;0.85;;
25439;SDS011;13365;52.208;5.488;2024-01-15T10:36:18;10.95;;;1.20;;
25439;SDS011;13365;52.208;5.488;2024-01-15T10:38:44;11.57;;;1.20;;
25439;SDS011;13365;52.208;5.488;2024-01-15T10:41:10;4.50;;;0.90;;
25439;SDS011;13365;52.208;5.488;2024-01-15T10:43:36;6.50;;;0.90;;
25439;SDS011;13365;52.208;5.488;2024-01-15T10:46:02;6.40;;;1.15;;
25439;SDS011;13365;52.208;5.488;2024-01-15T10:48:28;9.20;;;1.00;;
25439;SDS011;13365;52.208;5.488;2024-01-15T10:50:56;5.93;;;0.70;;
25439;SDS011;13365;52.208;5.488;2024-01-15T10:53:23;10.75;;;1.05;;
25439;SDS011;13365;52.208;5.488;2024-01-15T10:55:52;4.95;;;0.98;;
25439;SDS011;13365;52.208;5.488;2024-01-15T10:58:18;4.00;;;0.93;;
25439;SDS011;13365;52.208;5.488;2024-01-15T11:00:45;13.43;;;1.58;;
25439;SDS011;13365;52.208;5.488;2024-01-15T11:03:11;6.70;;;1.42;;
25439;SDS011;13365;52.208;5.488;2024-01-15T11:05:43;6.20;;;0.73;;
25439;SDS011;13365;52.208;5.488;2024-01-15T11:08:09;4.07;;;0.88;;
25439;SDS011;13365;52.208;5.488;2024-01-15T11:10:50;6.05;;;0.80;;
25439;SDS011;13365;52.208;5.488;2024-01-15T11:13:20;7.25;;;0.65;;
25439;SDS011;13365;52.208;5.488;2024-01-15T11:18:26;7.85;;;1.02;;
25439;SDS011;13365;52.208;5.488;2024-01-15T11:23:54;11.93;;;1.40;;
25439;SDS011;13365;52.208;5.488;2024-01-15T11:26:44;6.60;;;1.17;;
25439;SDS011;13365;52.208;5.488;2024-01-15T11:34:20;2.95;;;0.57;;
25439;SDS011;13365;52.208;5.488;2024-01-15T11:41:56;3.15;;;0.50;;
25439;SDS011;13365;52.208;5.488;2024-01-15T11:44:22;1.40;;;0.28;;
25439;SDS011;13365;52.208;5.488;2024-01-15T11:46:54;1.27;;;0.50;;
25439;SDS011;13365;52.208;5.488;2024-01-15T11:49:34;2.90;;;0.32;;
25439;SDS011;13365;52.208;5.488;2024-01-15T11:52:19;0.28;;;0.20;;
25439;SDS011;13365;52.208;5.488;2024-01-15T12:00:25;5.82;;;0.70;;
25439;SDS011;13365;52.208;5.488;2024-01-15T12:02:51;13.95;;;3.15;;
25439;SDS011;13365;52.208;5.488;2024-01-15T12:05:17;7.30;;;1.58;;
25439;SDS011;13365;52.208;5.488;2024-01-15T12:07:44;6.45;;;3.33;;
25439;SDS011;13365;52.208;5.488;2024-01-15T12:10:11;9.40;;;6.95;;
25439;SDS011;13365;52.208;5.488;2024-01-15T12:12:47;6.13;;;3.75;;
25439;SDS011;13365;52.208;5.488;2024-01-15T12:15:20;7.70;;;2.45;;
25439;SDS011;13365;52.208;5.488;2024-01-15T12:17:46;12.32;;;5.40;;
25439;SDS011;13365;52.208;5.488;2024-01-15T12:20:12;6.35;;;1.95;;
25439;SDS011;13365;52.208;5.488;2024-01-15T12:22:38;5.63;;;2.30;;
25439;SDS011;13365;52.208;5.488;2024-01-15T12:25:04;12.27;;;2.20;;
25439;SDS011;13365;52.208;5.488;2024-01-15T12:27:30;6.03;;;0.50;;
25439;SDS011;13365;52.208;5.488;2024-01-15T12:29:57;5.55;;;0.70;;
25439;SDS011;13365;52.208;5.488;2024-01-15T12:32:24;1.25;;;0.60;;
25439;SDS011;13365;52.208;5.488;2024-01-15T12:34:50;4.45;;;0.73;;
25439;SDS011;13365;52.208;5.488;2024-01-15T12:37:19;3.17;;;0.70;;
25439;SDS011;13365;52.208;5.488;2024-01-15T12:39:45;7.00;;;1.13;;
25439;SDS011;13365;52.208;5.488;2024-01-15T12:42:11;6.85;;;0.90;;
25439;SDS011;13365;52.208;5.488;2024-01-15T12:44:39;6.75;;;0.75;;
25439;SDS011;13365;52.208;5.488;2024-01-15T12:47:04;3.33;;;0.73;;
25439;SDS011;13365;52.208;5.488;2024-01-15T12:49:30;2.35;;;0.70;;
25439;SDS011;13365;52.208;5.488;2024-01-15T12:51:57;5.93;;;0.90;;
25439;SDS011;13365;52.208;5.488;2024-01-15T12:54:23;4.63;;;0.68;;
25439;SDS011;13365;52.208;5.488;2024-01-15T12:56:52;3.35;;;0.70;;
25439;SDS011;13365;52.208;5.488;2024-01-15T12:59:19;4.95;;;0.70;;
25439;SDS011;13365;52.208;5.488;2024-01-15T13:01:45;6.80;;;1.05;;
25439;SDS011;13365;52.208;5.488;2024-01-15T13:04:11;10.57;;;0.65;;
25439;SDS011;13365;52.208;5.488;2024-01-15T13:06:45;7.22;;;0.73;;
25439;SDS011;13365;52.208;5.488;2024-01-15T13:09:11;8.10;;;0.80;;
25439;SDS011;13365;52.208;5.488;2024-01-15T13:11:37;3.33;;;0.50;;
25439;SDS011;13365;52.208;5.488;2024-01-15T13:14:02;5.97;;;0.98;;
25439;SDS011;13365;52.208;5.488;2024-01-15T13:16:28;5.68;;;1.02;;
25439;SDS011;13365;52.208;5.488;2024-01-15T13:18:54;6.70;;;0.80;;
25439;SDS011;13365;52.208;5.488;2024-01-15T13:21:22;8.90;;;0.90;;
25439;SDS011;13365;52.208;5.488;2024-01-15T13:23:48;11.25;;;0.93;;
25439;SDS011;13365;52.208;5.488;2024-01-15T13:26:13;1.75;;;0.45;;
25439;SDS011;13365;52.208;5.488;2024-01-15T13:28:39;4.10;;;0.70;;
25439;SDS011;13365;52.208;5.488;2024-01-15T13:31:05;8.10;;;0.95;;
25439;SDS011;13365;52.208;5.488;2024-01-15T13:33:31;6.50;;;0.77;;
25439;SDS011;13365;52.208;5.488;2024-01-15T13:35:56;10.10;;;0.80;;
25439;SDS011;13365;52.208;5.488;2024-01-15T13:38:22;5.05;;;0.80;;
25439;SDS011;13365;52.208;5.488;2024-01-15T13:40:49;5.90;;;0.65;;
25439;SDS011;13365;52.208;5.488;2024-01-15T13:43:14;6.50;;;1.23;;
25439;SDS011;13365;52.208;5.488;2024-01-15T13:45:41;9.20;;;1.13;;
25439;SDS011;13365;52.208;5.488;2024-01-15T13:48:06;4.35;;;0.73;;
25439;SDS011;13365;52.208;5.488;2024-01-15T13:50:33;6.10;;;1.13;;
25439;SDS011;13365;52.208;5.488;2024-01-15T13:53:00;4.47;;;0.93;;
25439;SDS011;13365;52.208;5.488;2024-01-15T13:55:29;7.95;;;1.52;;
25439;SDS011;13365;52.208;5.488;2024-01-15T13:57:55;4.70;;;0.68;;
25439;SDS011;13365;52.208;5.488;2024-01-15T14:00:20;4.32;;;1.35;;
25439;SDS011;13365;52.208;5.488;2024-01-15T14:02:47;6.47;;;0.85;;
25439;SDS011;13365;52.208;5.488;2024-01-15T14:05:13;7.55;;;1.20;;
25439;SDS011;13365;52.208;5.488;2024-01-15T14:07:39;5.22;;;0.82;;
25439;SDS011;13365;52.208;5.488;2024-01-15T14:10:05;3.70;;;0.98;;
25439;SDS011;13365;52.208;5.488;2024-01-15T14:12:33;7.50;;;0.70;;
25439;SDS011;13365;52.208;5.488;2024-01-15T14:14:58;4.00;;;0.70;;
25439;SDS011;13365;52.208;5.488;2024-01-15T14:17:24;8.00;;;0.77;;
25439;SDS011;13365;52.208;5.488;2024-01-15T14:19:50;5.28;;;0.90;;
25439;SDS011;13365;52.208;5.488;2024-01-15T14:22:15;6.55;;;1.52;;
25439;SDS011;13365;52.208;5.488;2024-01-15T14:24:41;8.63;;;1.15;;
25439;SDS011;13365;52.208;5.488;2024-01-15T14:27:06;7.30;;;1.48;;
25439;SDS011;13365;52.208;5.488;2024-01-15T14:29:32;5.72;;;1.15;;
25439;SDS011;13365;52.208;5.488;2024-01-15T14:31:59;11.15;;;1.63;;
25439;SDS011;13365;52.208;5.488;2024-01-15T14:34:25;9.60;;;1.52;;
25439;SDS011;13365;52.208;5.488;2024-01-15T14:36:51;4.47;;;1.10;;
25439;SDS011;13365;52.208;5.488;2024-01-15T14:39:20;11.65;;;3.67;;
25439;SDS011;13365;52.208;5.488;2024-01-15T14:41:46;9.05;;;2.13;;
25439;SDS011;13365;52.208;5.488;2024-01-15T14:44:12;4.47;;;0.90;;
25439;SDS011;13365;52.208;5.488;2024-01-15T14:46:38;11.65;;;0.90;;
25439;SDS011;13365;52.208;5.488;2024-01-15T14:49:04;8.07;;;0.60;;
25439;SDS011;13365;52.208;5.488;2024-01-15T14:51:30;6.95;;;1.00;;
25439;SDS011;13365;52.208;5.488;2024-01-15T14:53:55;10.65;;;1.38;;
25439;SDS011;13365;52.208;5.488;2024-01-15T14:56:23;9.07;;;1.40;;
25439;SDS011;13365;52.208;5.488;2024-01-15T14:58:48;10.10;;;1.40;;
25439;SDS011;13365;52.208;5.488;2024-01-15T15:01:14;7.53;;;1.38;;